Saturday, April 19, 2014
09:39 UTC
  |  Log In   |  Register Free
Airport Search:

Modesto City-Co-Harry Sham Fld Airport
(KMOD)

FAA data valid effective April 3, 2014 until May 29, 2014 (unless otherwise noted).

 
 
 
 
 
 
 
 
 
 
 
 
 
 

Current Aviation Weather for Modesto City-Co-Harry Sham Fld Airport (KMOD)

The most recent METAR observation for KMOD was updated at: 0853 UTC
METAR Summary (Translated METAR)
KMOD
190853Z AUTO 32007KT 10SM CLR 15/04 A2988 RMK AO2 SLP118 T01500044 53005
KSCK
(21 nm NW from KMOD)
190855Z AUTO 27009KT 10SM CLR 14/06 A2989 RMK AO2 SLP122 T01390056 52007 TSNO
TAF Summary (Translated TAF)
KSCK
(21 nm NW from KMOD)
190520Z 1906/2006 28007KT P6SM FEW250 FM192000 30011G18KT P6SM SKC
KMCE
(29.3 nm SE from KMOD)
190536Z 1906/2006 31006KT P6SM SCT200 FM192300 33013G20KT P6SM SKC
  Airport Weather Conditions for KMOD

 Current Weather at MOD
59° F
Fair
Northwest winds at 8.1 mph
MOD NOAA Radar

Pressure: 29.88 in
Humidity: 49%
Wind: Northwest at 8.1 MPH (7 KT)
Dew Point: 39.9°F
Visibility: 10.00 mi


Airport Weather Forecast for KMOD

Translated METAR and TAF for KMOD
Translated METAR for KMOD (0939 UTC 19 April 2014)
found at http://aviationweather.gov/adds/metars/
 
METAR text: KMOD 190853Z AUTO 32007KT 10SM CLR 15/04 A2988 RMK AO2 SLP118 T01500044 53005
Conditions at: KMOD (MODESTO , CA, US) observed 0853 UTC 19 April 2014
Temperature: 15.0°C (59°F)
Dewpoint: 4.4°C (40°F) [RH = 49%]
Pressure (altimeter): 29.88 inches Hg (1011.9 mb)
[Sea-level pressure: 1011.8 mb]
Winds: from the NW (320 degrees) at 8 MPH (7 knots; 3.6 m/s)
Visibility: 10 or more miles (16+ km)
Ceiling: at least 12,000 feet AGL
Clouds: sky clear below 12,000 feet AGL
Weather: automated observation with no human augmentation;
there may or may not be significant weather present at this time
Translated TAF for KMOD

There is no translated TAF available for this airport

Find All Airport Services Find A Hotel Find A Rental Car Find A Golf Course Find A Restaurant $100 Hamburger



FBO's on the Field
FBO Company Facility Photos Services Transportation Aviation Fuel Prices: Prices include tax
Catering Weather Repair Courtesy Rental Type 100LL JetA JetA+ MOGAS 8087
 
Sky Trek Aviation

This FBO has not yet been rated
FS:Avfuel
Last Updated: Apr-17
Login to update fuel prices
SS:
Contact Sky Trek AviationMore FBO Information
 
Add another FBO Facility Photos Catering Weather Repair Courtesy Rental Type 100LL JetA JetA+ MOGAS 8087
Services Transportation Aviation Fuel Prices: Prices include tax


GlobalAir.com Airport Resource Center model-print
model-print
model-print
model-print